Kaneville, Illinois
Current Conditions -  °F | °C
As of 5:52 PM on Friday 28 Nov 2014 (Local Time) from KARR Reporting Station
Haze Haze  
Wind Chill: 26°   Ceiling: Unl
Heat Index: 34°   Visibility: 6mi
Dew Point: 28°   Wind: 10mph
Humidity: 79%   Direction: 160°SSE
Pressure: 29.96"   Gusts: NA
Location:  41.84°N, 88.52°W
Report Text: KARR 282352Z 16009KT 6SM HZ CLR 01/M02 A2996 RMK AO2 SLP155 T00111022 10011 21022 56008
Loading
Personal Weather Stations






























Interactive Weather Map New forecast layout! Learn more

10-Day Weather Forecast

Advertisements
Track Severe Weather on mobile